createdAt,value
2022-12-15T05:00:55.902Z,5.43
2022-12-15T05:05:16.283Z,5.75
2022-12-15T05:09:36.685Z,7.35
2022-12-15T05:13:57.117Z,8.02
2022-12-15T05:18:18.734Z,5.90
2022-12-15T05:22:39.025Z,6.15
2022-12-15T05:26:59.510Z,7.85
2022-12-15T05:31:19.888Z,7.25
2022-12-15T05:35:24.131Z,6.40
2022-12-15T05:39:27.769Z,6.22
2022-12-15T05:43:30.975Z,6.93
2022-12-15T05:47:33.858Z,7.55
2022-12-15T05:51:41.305Z,6.80
2022-12-15T05:55:43.936Z,7.25
2022-12-15T05:59:46.562Z,6.80
2022-12-15T06:03:49.239Z,6.95
2022-12-15T06:07:53.215Z,6.35
2022-12-15T06:11:55.826Z,6.15
2022-12-15T06:15:59.952Z,7.93
2022-12-15T06:20:02.840Z,7.93
2022-12-15T06:28:10.203Z,6.22
2022-12-15T06:32:12.984Z,5.85
2022-12-15T06:36:17.208Z,5.57
2022-12-15T06:40:21.223Z,5.47
2022-12-15T06:44:24.045Z,6.50
2022-12-15T06:52:29.592Z,5.85
2022-12-15T06:56:36.958Z,7.10
2022-12-15T07:00:40.539Z,7.85
2022-12-15T07:04:43.177Z,7.53
2022-12-15T07:08:52.180Z,7.65
2022-12-15T07:12:57.628Z,10.13
2022-12-15T07:17:00.344Z,11.73
2022-12-15T07:25:44.273Z,8.95
2022-12-15T07:29:48.292Z,7.97
2022-12-15T07:33:52.130Z,8.40
2022-12-15T07:37:55.135Z,8.40
2022-12-15T07:41:57.798Z,7.28
2022-12-15T07:46:02.692Z,8.60
2022-12-15T07:50:06.095Z,12.02
2022-12-15T07:54:10.998Z,11.32
2022-12-15T07:58:13.651Z,10.13
2022-12-15T08:02:18.265Z,9.20
2022-12-15T08:06:21.259Z,8.02
2022-12-15T08:14:26.415Z,7.80
2022-12-15T08:18:30.382Z,8.05
2022-12-15T08:22:33.008Z,7.57
2022-12-15T08:26:37.731Z,8.35
2022-12-15T08:30:40.746Z,9.80
2022-12-15T08:34:44.718Z,10.07
2022-12-15T08:38:48.492Z,11.27
2022-12-15T08:42:51.084Z,12.63
2022-12-15T08:46:53.697Z,11.40
2022-12-15T08:50:57.873Z,9.15
2022-12-15T08:55:00.472Z,9.88
2022-12-15T08:59:03.825Z,8.88
2022-12-15T09:03:06.483Z,9.18
2022-12-15T09:07:10.630Z,9.27
2022-12-15T09:11:13.693Z,11.05
2022-12-15T09:15:16.425Z,10.02
2022-12-15T09:19:19.102Z,12.38
2022-12-15T09:23:23.278Z,12.25
2022-12-15T09:27:25.966Z,9.25
2022-12-15T09:31:30.946Z,9.65
2022-12-15T09:35:33.680Z,9.77
2022-12-15T09:39:38.838Z,9.90
2022-12-15T09:43:59.867Z,8.73
2022-12-15T09:48:06.156Z,9.77
2022-12-15T09:52:14.086Z,8.93
2022-12-15T09:56:22.469Z,9.35
2022-12-15T10:00:27.037Z,9.00
2022-12-15T10:04:39.347Z,8.02
2022-12-15T10:08:45.606Z,8.50
2022-12-15T10:13:00.147Z,8.48
2022-12-15T10:17:14.889Z,8.85
2022-12-15T10:21:17.948Z,9.27
2022-12-15T10:25:29.762Z,9.77
2022-12-15T10:29:44.035Z,8.88
2022-12-15T10:33:55.498Z,9.10
2022-12-15T10:37:59.702Z,9.30
2022-12-15T10:42:15.062Z,8.43
2022-12-15T10:46:21.906Z,8.60
2022-12-15T10:50:27.411Z,8.75
2022-12-15T10:54:35.585Z,9.30
2022-12-15T10:58:50.172Z,9.50
2022-12-15T11:02:54.652Z,8.77
2022-12-15T11:06:58.964Z,9.98
2022-12-15T11:11:19.088Z,10.50
2022-12-15T11:15:47.195Z,10.35
2022-12-15T11:20:03.117Z,11.20
2022-12-15T11:24:15.646Z,11.73
2022-12-15T11:28:22.480Z,10.68
2022-12-15T11:32:27.501Z,11.75
2022-12-15T11:36:54.586Z,11.60
2022-12-15T11:41:06.348Z,10.57
2022-12-15T11:45:18.550Z,11.85
2022-12-15T11:49:40.966Z,11.48
2022-12-15T11:53:59.231Z,11.13
2022-12-15T11:58:24.254Z,11.48
2022-12-15T12:02:44.225Z,12.52
2022-12-15T12:06:59.332Z,11.15
2022-12-15T12:11:11.508Z,11.20
2022-12-15T12:15:27.734Z,11.13
2022-12-15T12:19:35.637Z,11.27
2022-12-15T12:23:45.255Z,9.98
2022-12-15T12:27:56.609Z,10.90
2022-12-15T12:32:08.685Z,11.48
2022-12-15T12:36:12.821Z,10.70
2022-12-15T12:40:20.721Z,9.40
2022-12-15T12:44:32.378Z,9.98
2022-12-15T12:48:39.565Z,11.07
2022-12-15T12:52:49.665Z,9.68
2022-12-15T12:56:52.371Z,9.93
2022-12-15T13:01:16.739Z,10.50
2022-12-15T13:05:31.251Z,10.52
2022-12-15T13:09:40.403Z,10.25
2022-12-15T13:13:51.144Z,10.88
2022-12-15T13:18:01.280Z,11.30
2022-12-15T13:22:04.114Z,10.55
2022-12-15T13:26:15.332Z,11.15
2022-12-15T13:30:18.663Z,9.30
2022-12-15T13:38:54.615Z,9.48
2022-12-15T13:42:59.327Z,9.95
2022-12-15T13:47:10.471Z,10.35
2022-12-15T13:51:27.328Z,10.20
2022-12-15T13:55:40.529Z,9.90
2022-12-15T13:59:49.356Z,9.98
2022-12-15T14:04:01.034Z,10.75
2022-12-15T14:08:11.215Z,10.73
2022-12-15T14:12:15.127Z,10.05
2022-12-15T14:16:21.123Z,11.38
2022-12-15T14:20:25.932Z,10.63
2022-12-15T14:24:40.920Z,10.68
2022-12-15T14:28:45.435Z,11.68
2022-12-15T14:32:52.588Z,10.05
2022-12-15T14:36:57.311Z,10.30
2022-12-15T14:41:04.227Z,10.52
2022-12-15T14:45:18.896Z,10.00
2022-12-15T14:49:23.954Z,11.38
2022-12-15T14:53:29.308Z,11.05
2022-12-15T14:57:44.335Z,11.25
2022-12-15T15:06:19.545Z,10.20
2022-12-15T15:10:25.312Z,9.50
2022-12-15T15:14:33.914Z,10.25
2022-12-15T15:18:36.613Z,16.35
2022-12-15T15:22:41.530Z,11.45
2022-12-15T15:26:44.497Z,10.68
2022-12-15T15:30:50.014Z,10.80
2022-12-15T15:34:53.251Z,11.18
2022-12-15T15:38:56.006Z,10.30
2022-12-15T15:42:58.685Z,10.23
2022-12-15T15:47:02.662Z,13.63
2022-12-15T15:51:06.478Z,13.85
2022-12-15T15:55:14.959Z,12.68
2022-12-15T15:59:20.842Z,9.43
2022-12-15T16:03:25.136Z,8.60
2022-12-15T16:07:29.990Z,8.02
2022-12-15T16:11:33.064Z,8.23
2022-12-15T16:19:40.482Z,8.77
2022-12-15T16:23:46.050Z,9.55
2022-12-15T16:27:48.656Z,9.68
2022-12-15T16:31:52.352Z,8.30
2022-12-15T16:35:56.572Z,9.27
2022-12-15T16:39:59.349Z,11.00
2022-12-15T16:44:01.984Z,9.25
2022-12-15T16:48:04.998Z,8.50
2022-12-15T16:56:20.798Z,13.10
2022-12-15T17:00:25.946Z,14.48
2022-12-15T17:04:28.545Z,16.67
2022-12-15T17:08:38.335Z,17.13
2022-12-15T17:12:41.265Z,13.15
2022-12-15T17:16:43.837Z,13.38
2022-12-15T17:20:46.810Z,12.82
2022-12-15T17:24:51.938Z,14.50
2022-12-15T17:28:55.408Z,17.98
2022-12-15T17:32:58.166Z,18.10
2022-12-15T17:37:04.244Z,15.05
2022-12-15T17:41:28.824Z,15.27
2022-12-15T17:45:35.477Z,16.13
2022-12-15T17:49:39.204Z,14.90
2022-12-15T17:53:43.128Z,12.50
2022-12-15T17:57:47.167Z,11.90
2022-12-15T18:01:50.219Z,15.63
2022-12-15T18:09:56.282Z,19.02
2022-12-15T18:14:00.727Z,19.05
2022-12-15T18:18:03.334Z,15.60
2022-12-15T18:22:07.142Z,11.77
2022-12-15T18:26:12.478Z,12.30
2022-12-15T18:30:18.812Z,13.45
2022-12-15T18:34:21.994Z,12.95
2022-12-15T18:38:26.110Z,18.00
2022-12-15T18:42:28.709Z,23.20
2022-12-15T18:46:32.866Z,27.30
2022-12-15T18:50:36.675Z,22.38
2022-12-15T18:54:40.803Z,21.27
2022-12-15T18:58:43.511Z,22.05
2022-12-15T19:06:51.330Z,15.50
2022-12-15T19:10:57.012Z,14.18
2022-12-15T19:14:59.649Z,14.68
2022-12-15T19:19:21.057Z,14.40
2022-12-15T19:23:23.774Z,14.48
2022-12-15T19:27:27.135Z,14.48
2022-12-15T19:31:29.764Z,13.00
2022-12-15T19:35:34.102Z,14.07
2022-12-15T19:39:38.204Z,17.75
2022-12-15T19:43:40.859Z,18.17
2022-12-15T19:47:43.859Z,17.90
2022-12-15T19:55:52.297Z,18.15
2022-12-15T19:59:55.004Z,12.48
2022-12-15T20:03:58.034Z,12.63
2022-12-15T20:12:04.823Z,15.77
2022-12-15T20:16:08.998Z,14.75
2022-12-15T20:20:15.818Z,17.65
2022-12-15T20:24:20.722Z,16.80
2022-12-15T20:28:25.539Z,17.55
2022-12-15T20:32:31.675Z,14.38
2022-12-15T20:36:38.872Z,13.25
2022-12-15T20:40:42.968Z,10.98
2022-12-15T20:44:45.601Z,14.00
2022-12-15T20:48:49.346Z,10.43
2022-12-15T20:52:52.141Z,8.73
2022-12-15T20:56:56.178Z,8.93
2022-12-15T21:00:59.071Z,10.05
2022-12-15T21:09:11.762Z,10.23
2022-12-15T21:13:20.475Z,9.98
2022-12-15T21:17:26.432Z,11.10
2022-12-15T21:21:32.138Z,10.52
2022-12-15T21:25:34.806Z,9.18
2022-12-15T21:29:38.858Z,12.35
2022-12-15T21:33:41.794Z,14.05
2022-12-15T21:41:48.161Z,19.25
2022-12-15T21:45:52.102Z,14.63
2022-12-15T21:49:55.142Z,15.65
2022-12-15T21:53:57.955Z,17.48
2022-12-15T21:58:00.626Z,16.65
